sensor_id;sensor_type;location;lat;lon;timestamp;P1;durP1;ratioP1;P2;durP2;ratioP2
44564;SDS011;30275;51.822;-0.326;2022-12-20T00:01:52;5.05;;;2.25;;
44564;SDS011;30275;51.822;-0.326;2022-12-20T00:04:17;7.93;;;2.00;;
44564;SDS011;30275;51.822;-0.326;2022-12-20T00:06:43;4.82;;;2.08;;
44564;SDS011;30275;51.822;-0.326;2022-12-20T00:09:10;8.30;;;3.10;;
44564;SDS011;30275;51.822;-0.326;2022-12-20T00:11:37;6.25;;;2.03;;
44564;SDS011;30275;51.822;-0.326;2022-12-20T00:14:05;10.02;;;2.42;;
44564;SDS011;30275;51.822;-0.326;2022-12-20T00:16:31;4.32;;;2.17;;
44564;SDS011;30275;51.822;-0.326;2022-12-20T00:18:58;6.88;;;1.83;;
44564;SDS011;30275;51.822;-0.326;2022-12-20T00:21:25;9.98;;;2.20;;
44564;SDS011;30275;51.822;-0.326;2022-12-20T00:23:51;9.13;;;2.30;;
44564;SDS011;30275;51.822;-0.326;2022-12-20T00:26:18;7.15;;;1.90;;
44564;SDS011;30275;51.822;-0.326;2022-12-20T00:28:45;7.05;;;2.28;;
44564;SDS011;30275;51.822;-0.326;2022-12-20T00:31:12;6.75;;;1.50;;
44564;SDS011;30275;51.822;-0.326;2022-12-20T00:33:46;4.95;;;1.60;;
44564;SDS011;30275;51.822;-0.326;2022-12-20T00:36:14;2.57;;;0.93;;
44564;SDS011;30275;51.822;-0.326;2022-12-20T00:38:41;7.65;;;1.80;;
44564;SDS011;30275;51.822;-0.326;2022-12-20T00:41:11;3.85;;;1.30;;
44564;SDS011;30275;51.822;-0.326;2022-12-20T00:43:38;3.75;;;1.40;;
44564;SDS011;30275;51.822;-0.326;2022-12-20T00:46:06;5.40;;;1.50;;
44564;SDS011;30275;51.822;-0.326;2022-12-20T00:48:33;7.68;;;1.95;;
44564;SDS011;30275;51.822;-0.326;2022-12-20T00:51:03;6.03;;;1.90;;
44564;SDS011;30275;51.822;-0.326;2022-12-20T00:53:31;4.03;;;1.33;;
44564;SDS011;30275;51.822;-0.326;2022-12-20T00:55:57;4.20;;;1.48;;
44564;SDS011;30275;51.822;-0.326;2022-12-20T00:58:23;5.35;;;2.00;;
44564;SDS011;30275;51.822;-0.326;2022-12-20T01:00:49;4.65;;;1.58;;
44564;SDS011;30275;51.822;-0.326;2022-12-20T01:03:15;2.63;;;1.10;;
44564;SDS011;30275;51.822;-0.326;2022-12-20T01:05:54;9.07;;;1.55;;
44564;SDS011;30275;51.822;-0.326;2022-12-20T01:08:21;5.13;;;1.70;;
44564;SDS011;30275;51.822;-0.326;2022-12-20T01:11:07;4.05;;;1.50;;
44564;SDS011;30275;51.822;-0.326;2022-12-20T01:13:38;3.83;;;1.60;;
44564;SDS011;30275;51.822;-0.326;2022-12-20T01:16:28;2.50;;;1.40;;
44564;SDS011;30275;51.822;-0.326;2022-12-20T01:18:53;5.03;;;1.52;;
44564;SDS011;30275;51.822;-0.326;2022-12-20T01:21:20;1.92;;;1.50;;
44564;SDS011;30275;51.822;-0.326;2022-12-20T01:23:47;8.15;;;1.75;;
44564;SDS011;30275;51.822;-0.326;2022-12-20T01:26:14;7.80;;;1.70;;
44564;SDS011;30275;51.822;-0.326;2022-12-20T01:28:42;3.45;;;1.33;;
44564;SDS011;30275;51.822;-0.326;2022-12-20T01:31:11;3.50;;;1.15;;
44564;SDS011;30275;51.822;-0.326;2022-12-20T01:33:40;5.40;;;1.30;;
44564;SDS011;30275;51.822;-0.326;2022-12-20T01:36:07;3.65;;;1.40;;
44564;SDS011;30275;51.822;-0.326;2022-12-20T01:38:35;4.65;;;1.63;;
44564;SDS011;30275;51.822;-0.326;2022-12-20T01:41:01;3.10;;;1.20;;
44564;SDS011;30275;51.822;-0.326;2022-12-20T01:43:51;5.75;;;1.65;;
44564;SDS011;30275;51.822;-0.326;2022-12-20T01:46:14;4.10;;;1.17;;
44564;SDS011;30275;51.822;-0.326;2022-12-20T01:48:41;6.70;;;1.65;;
44564;SDS011;30275;51.822;-0.326;2022-12-20T01:51:11;7.97;;;1.58;;
44564;SDS011;30275;51.822;-0.326;2022-12-20T01:53:36;4.55;;;1.70;;
44564;SDS011;30275;51.822;-0.326;2022-12-20T01:56:03;4.05;;;1.40;;
44564;SDS011;30275;51.822;-0.326;2022-12-20T01:58:30;7.90;;;1.77;;
44564;SDS011;30275;51.822;-0.326;2022-12-20T02:00:57;4.43;;;1.42;;
44564;SDS011;30275;51.822;-0.326;2022-12-20T02:03:23;6.35;;;1.88;;
44564;SDS011;30275;51.822;-0.326;2022-12-20T02:05:49;5.32;;;2.17;;
44564;SDS011;30275;51.822;-0.326;2022-12-20T02:08:16;5.65;;;1.50;;
44564;SDS011;30275;51.822;-0.326;2022-12-20T02:13:44;4.82;;;2.80;;
44564;SDS011;30275;51.822;-0.326;2022-12-20T02:16:47;9.20;;;1.90;;
44564;SDS011;30275;51.822;-0.326;2022-12-20T02:22:01;8.10;;;1.95;;
44564;SDS011;30275;51.822;-0.326;2022-12-20T02:24:47;5.13;;;1.75;;
44564;SDS011;30275;51.822;-0.326;2022-12-20T02:32:43;7.28;;;2.08;;
44564;SDS011;30275;51.822;-0.326;2022-12-20T02:35:20;8.85;;;1.98;;
44564;SDS011;30275;51.822;-0.326;2022-12-20T02:37:49;7.25;;;1.88;;
44564;SDS011;30275;51.822;-0.326;2022-12-20T02:40:21;5.27;;;1.80;;
44564;SDS011;30275;51.822;-0.326;2022-12-20T02:42:50;4.57;;;2.67;;
44564;SDS011;30275;51.822;-0.326;2022-12-20T02:45:22;4.53;;;1.73;;
44564;SDS011;30275;51.822;-0.326;2022-12-20T02:47:59;3.53;;;1.42;;
44564;SDS011;30275;51.822;-0.326;2022-12-20T02:50:27;7.03;;;1.83;;
44564;SDS011;30275;51.822;-0.326;2022-12-20T02:52:56;6.80;;;1.80;;
44564;SDS011;30275;51.822;-0.326;2022-12-20T02:55:27;5.90;;;2.13;;
44564;SDS011;30275;51.822;-0.326;2022-12-20T02:58:05;4.38;;;1.83;;
44564;SDS011;30275;51.822;-0.326;2022-12-20T03:00:39;5.35;;;2.13;;
44564;SDS011;30275;51.822;-0.326;2022-12-20T03:03:07;8.38;;;2.28;;
44564;SDS011;30275;51.822;-0.326;2022-12-20T03:05:50;8.25;;;2.88;;
44564;SDS011;30275;51.822;-0.326;2022-12-20T03:08:18;8.57;;;3.60;;
44564;SDS011;30275;51.822;-0.326;2022-12-20T03:10:45;10.32;;;2.60;;
44564;SDS011;30275;51.822;-0.326;2022-12-20T03:13:11;11.95;;;2.50;;
44564;SDS011;30275;51.822;-0.326;2022-12-20T03:15:37;6.65;;;2.90;;
44564;SDS011;30275;51.822;-0.326;2022-12-20T03:18:03;8.18;;;2.97;;
44564;SDS011;30275;51.822;-0.326;2022-12-20T03:20:29;4.50;;;1.92;;
44564;SDS011;30275;51.822;-0.326;2022-12-20T03:22:55;8.40;;;2.67;;
44564;SDS011;30275;51.822;-0.326;2022-12-20T03:25:21;13.32;;;3.15;;
44564;SDS011;30275;51.822;-0.326;2022-12-20T03:27:46;8.13;;;3.20;;
44564;SDS011;30275;51.822;-0.326;2022-12-20T03:30:12;10.38;;;3.30;;
44564;SDS011;30275;51.822;-0.326;2022-12-20T03:32:38;11.88;;;2.78;;
44564;SDS011;30275;51.822;-0.326;2022-12-20T03:35:04;6.32;;;2.47;;
44564;SDS011;30275;51.822;-0.326;2022-12-20T03:37:30;8.73;;;2.63;;
44564;SDS011;30275;51.822;-0.326;2022-12-20T03:39:56;9.07;;;2.83;;
44564;SDS011;30275;51.822;-0.326;2022-12-20T03:42:21;14.98;;;3.63;;
44564;SDS011;30275;51.822;-0.326;2022-12-20T03:44:47;7.47;;;3.05;;
44564;SDS011;30275;51.822;-0.326;2022-12-20T03:47:15;16.35;;;5.35;;
44564;SDS011;30275;51.822;-0.326;2022-12-20T03:49:41;6.45;;;3.10;;
44564;SDS011;30275;51.822;-0.326;2022-12-20T03:52:06;5.03;;;2.63;;
44564;SDS011;30275;51.822;-0.326;2022-12-20T03:54:35;9.15;;;3.13;;
44564;SDS011;30275;51.822;-0.326;2022-12-20T03:57:01;9.75;;;3.03;;
44564;SDS011;30275;51.822;-0.326;2022-12-20T03:59:27;12.10;;;4.20;;
44564;SDS011;30275;51.822;-0.326;2022-12-20T04:01:52;12.68;;;3.00;;
44564;SDS011;30275;51.822;-0.326;2022-12-20T04:04:18;10.43;;;2.95;;
44564;SDS011;30275;51.822;-0.326;2022-12-20T04:06:44;10.93;;;4.13;;
44564;SDS011;30275;51.822;-0.326;2022-12-20T04:09:09;11.45;;;2.83;;
44564;SDS011;30275;51.822;-0.326;2022-12-20T04:11:35;10.48;;;2.75;;
44564;SDS011;30275;51.822;-0.326;2022-12-20T04:14:00;9.50;;;3.03;;
44564;SDS011;30275;51.822;-0.326;2022-12-20T04:16:27;10.98;;;3.58;;
44564;SDS011;30275;51.822;-0.326;2022-12-20T04:18:54;8.95;;;3.40;;
44564;SDS011;30275;51.822;-0.326;2022-12-20T04:21:23;10.63;;;3.92;;
44564;SDS011;30275;51.822;-0.326;2022-12-20T04:23:51;7.75;;;2.08;;
44564;SDS011;30275;51.822;-0.326;2022-12-20T04:26:17;8.23;;;2.95;;
44564;SDS011;30275;51.822;-0.326;2022-12-20T04:28:43;14.82;;;3.90;;
44564;SDS011;30275;51.822;-0.326;2022-12-20T04:31:08;7.35;;;3.55;;
44564;SDS011;30275;51.822;-0.326;2022-12-20T04:33:35;9.73;;;2.58;;
44564;SDS011;30275;51.822;-0.326;2022-12-20T04:36:00;9.80;;;3.40;;
44564;SDS011;30275;51.822;-0.326;2022-12-20T04:38:26;11.40;;;4.15;;
44564;SDS011;30275;51.822;-0.326;2022-12-20T04:40:53;5.45;;;2.42;;
44564;SDS011;30275;51.822;-0.326;2022-12-20T04:43:19;4.50;;;2.58;;
44564;SDS011;30275;51.822;-0.326;2022-12-20T04:45:47;9.45;;;3.13;;
44564;SDS011;30275;51.822;-0.326;2022-12-20T04:48:13;11.50;;;3.35;;
44564;SDS011;30275;51.822;-0.326;2022-12-20T04:50:39;12.68;;;3.70;;
44564;SDS011;30275;51.822;-0.326;2022-12-20T04:53:05;12.30;;;3.70;;
44564;SDS011;30275;51.822;-0.326;2022-12-20T04:55:49;8.93;;;2.70;;
44564;SDS011;30275;51.822;-0.326;2022-12-20T04:58:15;6.35;;;3.08;;
44564;SDS011;30275;51.822;-0.326;2022-12-20T05:00:41;8.38;;;3.00;;
44564;SDS011;30275;51.822;-0.326;2022-12-20T05:03:07;9.48;;;2.85;;
44564;SDS011;30275;51.822;-0.326;2022-12-20T05:05:32;9.40;;;2.75;;
44564;SDS011;30275;51.822;-0.326;2022-12-20T05:07:58;4.57;;;2.28;;
44564;SDS011;30275;51.822;-0.326;2022-12-20T05:10:23;8.65;;;3.83;;
44564;SDS011;30275;51.822;-0.326;2022-12-20T05:12:49;5.43;;;2.10;;
44564;SDS011;30275;51.822;-0.326;2022-12-20T05:15:15;10.73;;;3.50;;
44564;SDS011;30275;51.822;-0.326;2022-12-20T05:17:41;10.82;;;3.72;;
44564;SDS011;30275;51.822;-0.326;2022-12-20T05:20:06;5.53;;;2.33;;
44564;SDS011;30275;51.822;-0.326;2022-12-20T05:22:33;10.10;;;3.30;;
44564;SDS011;30275;51.822;-0.326;2022-12-20T05:25:17;7.13;;;2.97;;
44564;SDS011;30275;51.822;-0.326;2022-12-20T05:28:01;6.60;;;3.08;;
44564;SDS011;30275;51.822;-0.326;2022-12-20T05:30:27;11.82;;;3.35;;
44564;SDS011;30275;51.822;-0.326;2022-12-20T05:32:52;7.50;;;3.08;;
44564;SDS011;30275;51.822;-0.326;2022-12-20T05:35:18;9.55;;;2.83;;
44564;SDS011;30275;51.822;-0.326;2022-12-20T05:37:44;6.53;;;2.42;;
44564;SDS011;30275;51.822;-0.326;2022-12-20T05:40:10;12.68;;;3.28;;
44564;SDS011;30275;51.822;-0.326;2022-12-20T05:42:36;8.57;;;2.88;;
44564;SDS011;30275;51.822;-0.326;2022-12-20T05:45:01;7.35;;;2.47;;
44564;SDS011;30275;51.822;-0.326;2022-12-20T05:47:28;6.40;;;2.33;;
44564;SDS011;30275;51.822;-0.326;2022-12-20T05:49:57;2.65;;;1.55;;
44564;SDS011;30275;51.822;-0.326;2022-12-20T05:52:24;8.43;;;3.25;;
44564;SDS011;30275;51.822;-0.326;2022-12-20T05:54:50;3.28;;;1.98;;
44564;SDS011;30275;51.822;-0.326;2022-12-20T05:57:15;5.60;;;2.20;;
44564;SDS011;30275;51.822;-0.326;2022-12-20T05:59:41;6.43;;;2.42;;
44564;SDS011;30275;51.822;-0.326;2022-12-20T06:02:10;6.18;;;2.97;;
44564;SDS011;30275;51.822;-0.326;2022-12-20T06:04:36;3.85;;;2.30;;
44564;SDS011;30275;51.822;-0.326;2022-12-20T06:07:02;2.58;;;1.55;;
44564;SDS011;30275;51.822;-0.326;2022-12-20T06:09:29;8.35;;;3.05;;
44564;SDS011;30275;51.822;-0.326;2022-12-20T06:11:56;5.05;;;1.60;;
44564;SDS011;30275;51.822;-0.326;2022-12-20T06:14:22;3.67;;;1.58;;
44564;SDS011;30275;51.822;-0.326;2022-12-20T06:16:50;1.33;;;0.88;;
44564;SDS011;30275;51.822;-0.326;2022-12-20T06:19:17;0.80;;;0.35;;
44564;SDS011;30275;51.822;-0.326;2022-12-20T06:21:42;1.48;;;0.50;;
44564;SDS011;30275;51.822;-0.326;2022-12-20T06:24:08;0.60;;;0.38;;
44564;SDS011;30275;51.822;-0.326;2022-12-20T06:26:34;0.63;;;0.30;;
44564;SDS011;30275;51.822;-0.326;2022-12-20T06:29:03;0.40;;;0.30;;
44564;SDS011;30275;51.822;-0.326;2022-12-20T06:31:31;0.20;;;0.20;;
44564;SDS011;30275;51.822;-0.326;2022-12-20T06:33:57;0.30;;;0.13;;
44564;SDS011;30275;51.822;-0.326;2022-12-20T06:36:23;0.73;;;0.35;;
44564;SDS011;30275;51.822;-0.326;2022-12-20T06:38:49;0.22;;;0.20;;
44564;SDS011;30275;51.822;-0.326;2022-12-20T06:41:15;0.60;;;0.20;;
44564;SDS011;30275;51.822;-0.326;2022-12-20T06:43:40;0.30;;;0.30;;
44564;SDS011;30275;51.822;-0.326;2022-12-20T06:46:06;0.30;;;0.30;;
44564;SDS011;30275;51.822;-0.326;2022-12-20T06:48:32;1.58;;;0.45;;
44564;SDS011;30275;51.822;-0.326;2022-12-20T06:50:58;0.30;;;0.30;;
44564;SDS011;30275;51.822;-0.326;2022-12-20T06:53:23;0.30;;;0.30;;
44564;SDS011;30275;51.822;-0.326;2022-12-20T06:55:49;0.45;;;0.30;;
44564;SDS011;30275;51.822;-0.326;2022-12-20T06:58:16;0.20;;;0.20;;
44564;SDS011;30275;51.822;-0.326;2022-12-20T07:00:42;0.40;;;0.40;;
44564;SDS011;30275;51.822;-0.326;2022-12-20T07:03:07;0.45;;;0.25;;
44564;SDS011;30275;51.822;-0.326;2022-12-20T07:05:36;0.50;;;0.32;;
44564;SDS011;30275;51.822;-0.326;2022-12-20T07:08:02;0.45;;;0.30;;
44564;SDS011;30275;51.822;-0.326;2022-12-20T07:10:29;0.40;;;0.40;;
44564;SDS011;30275;51.822;-0.326;2022-12-20T07:12:58;1.48;;;0.38;;
44564;SDS011;30275;51.822;-0.326;2022-12-20T07:15:24;0.70;;;0.50;;
44564;SDS011;30275;51.822;-0.326;2022-12-20T07:17:50;0.40;;;0.30;;
44564;SDS011;30275;51.822;-0.326;2022-12-20T07:20:16;0.38;;;0.38;;
44564;SDS011;30275;51.822;-0.326;2022-12-20T07:22:42;0.45;;;0.38;;
44564;SDS011;30275;51.822;-0.326;2022-12-20T07:25:07;0.57;;;0.35;;
44564;SDS011;30275;51.822;-0.326;2022-12-20T07:27:33;0.30;;;0.30;;
44564;SDS011;30275;51.822;-0.326;2022-12-20T07:29:59;1.10;;;0.40;;
44564;SDS011;30275;51.822;-0.326;2022-12-20T07:32:25;1.75;;;0.57;;
44564;SDS011;30275;51.822;-0.326;2022-12-20T07:34:51;2.95;;;0.68;;
44564;SDS011;30275;51.822;-0.326;2022-12-20T07:37:16;1.60;;;0.80;;
44564;SDS011;30275;51.822;-0.326;2022-12-20T07:39:42;1.42;;;0.90;;
44564;SDS011;30275;51.822;-0.326;2022-12-20T07:42:07;1.40;;;0.82;;
44564;SDS011;30275;51.822;-0.326;2022-12-20T07:44:33;0.95;;;0.50;;
44564;SDS011;30275;51.822;-0.326;2022-12-20T07:46:59;1.60;;;0.68;;
44564;SDS011;30275;51.822;-0.326;2022-12-20T07:49:26;1.30;;;0.80;;
44564;SDS011;30275;51.822;-0.326;2022-12-20T07:51:53;1.15;;;0.82;;
44564;SDS011;30275;51.822;-0.326;2022-12-20T07:54:26;1.45;;;0.60;;
44564;SDS011;30275;51.822;-0.326;2022-12-20T07:56:59;0.77;;;0.77;;
44564;SDS011;30275;51.822;-0.326;2022-12-20T07:59:33;1.33;;;1.08;;
44564;SDS011;30275;51.822;-0.326;2022-12-20T08:02:06;0.90;;;0.80;;
44564;SDS011;30275;51.822;-0.326;2022-12-20T08:04:35;2.90;;;0.80;;
44564;SDS011;30275;51.822;-0.326;2022-12-20T08:07:00;1.13;;;0.60;;
44564;SDS011;30275;51.822;-0.326;2022-12-20T08:09:27;1.13;;;0.65;;
44564;SDS011;30275;51.822;-0.326;2022-12-20T08:11:55;0.70;;;0.70;;
44564;SDS011;30275;51.822;-0.326;2022-12-20T08:14:22;0.57;;;0.47;;
44564;SDS011;30275;51.822;-0.326;2022-12-20T08:16:48;1.02;;;0.50;;
44564;SDS011;30275;51.822;-0.326;2022-12-20T08:19:14;0.70;;;0.57;;
44564;SDS011;30275;51.822;-0.326;2022-12-20T08:21:40;1.33;;;0.50;;
44564;SDS011;30275;51.822;-0.326;2022-12-20T08:24:06;1.88;;;0.88;;
44564;SDS011;30275;51.822;-0.326;2022-12-20T08:26:35;2.65;;;0.93;;
44564;SDS011;30275;51.822;-0.326;2022-12-20T08:29:05;1.25;;;0.90;;
44564;SDS011;30275;51.822;-0.326;2022-12-20T08:31:35;1.88;;;1.13;;
44564;SDS011;30275;51.822;-0.326;2022-12-20T08:34:02;2.25;;;0.90;;
44564;SDS011;30275;51.822;-0.326;2022-12-20T08:36:27;2.85;;;0.98;;
44564;SDS011;30275;51.822;-0.326;2022-12-20T08:38:53;1.25;;;1.10;;
44564;SDS011;30275;51.822;-0.326;2022-12-20T08:41:19;1.48;;;0.90;;
44564;SDS011;30275;51.822;-0.326;2022-12-20T08:43:44;1.35;;;0.90;;
44564;SDS011;30275;51.822;-0.326;2022-12-20T08:46:10;1.48;;;1.13;;
44564;SDS011;30275;51.822;-0.326;2022-12-20T08:48:36;2.25;;;1.58;;
44564;SDS011;30275;51.822;-0.326;2022-12-20T08:51:03;1.55;;;1.10;;
44564;SDS011;30275;51.822;-0.326;2022-12-20T08:53:31;3.17;;;1.20;;
44564;SDS011;30275;51.822;-0.326;2022-12-20T08:56:02;1.95;;;1.33;;
44564;SDS011;30275;51.822;-0.326;2022-12-20T08:58:32;2.95;;;1.10;;
44564;SDS011;30275;51.822;-0.326;2022-12-20T09:00:59;2.28;;;1.02;;
44564;SDS011;30275;51.822;-0.326;2022-12-20T09:03:28;4.85;;;1.30;;
44564;SDS011;30275;51.822;-0.326;2022-12-20T09:05:55;2.42;;;1.20;;
44564;SDS011;30275;51.822;-0.326;2022-12-20T09:08:21;3.65;;;1.30;;
44564;SDS011;30275;51.822;-0.326;2022-12-20T09:10:47;2.25;;;1.10;;
44564;SDS011;30275;51.822;-0.326;2022-12-20T09:13:13;2.67;;;1.00;;
44564;SDS011;30275;51.822;-0.326;2022-12-20T09:15:38;5.35;;;1.38;;
44564;SDS011;30275;51.822;-0.326;2022-12-20T09:18:04;4.85;;;0.80;;
44564;SDS011;30275;51.822;-0.326;2022-12-20T09:20:33;3.80;;;1.00;;
44564;SDS011;30275;51.822;-0.326;2022-12-20T09:22:58;4.05;;;2.30;;
44564;SDS011;30275;51.822;-0.326;2022-12-20T09:25:25;3.75;;;1.02;;
44564;SDS011;30275;51.822;-0.326;2022-12-20T09:27:51;3.30;;;1.20;;
44564;SDS011;30275;51.822;-0.326;2022-12-20T09:30:20;5.95;;;1.45;;
44564;SDS011;30275;51.822;-0.326;2022-12-20T09:32:46;4.68;;;1.60;;
44564;SDS011;30275;51.822;-0.326;2022-12-20T09:35:12;5.03;;;1.63;;
44564;SDS011;30275;51.822;-0.326;2022-12-20T09:37:37;6.20;;;1.85;;
44564;SDS011;30275;51.822;-0.326;2022-12-20T09:40:03;4.78;;;1.13;;
44564;SDS011;30275;51.822;-0.326;2022-12-20T09:42:29;4.45;;;1.38;;
44564;SDS011;30275;51.822;-0.326;2022-12-20T09:44:59;8.38;;;3.42;;
44564;SDS011;30275;51.822;-0.326;2022-12-20T09:47:33;5.22;;;1.33;;
44564;SDS011;30275;51.822;-0.326;2022-12-20T09:50:00;4.10;;;1.25;;
44564;SDS011;30275;51.822;-0.326;2022-12-20T10:00:43;5.55;;;1.70;;
44564;SDS011;30275;51.822;-0.326;2022-12-20T10:03:19;6.00;;;2.03;;
44564;SDS011;30275;51.822;-0.326;2022-12-20T10:08:54;6.43;;;1.98;;
44564;SDS011;30275;51.822;-0.326;2022-12-20T10:16:51;6.45;;;1.52;;
44564;SDS011;30275;51.822;-0.326;2022-12-20T10:22:08;7.68;;;1.35;;
44564;SDS011;30275;51.822;-0.326;2022-12-20T10:24:44;7.13;;;1.42;;
44564;SDS011;30275;51.822;-0.326;2022-12-20T10:27:20;5.43;;;1.70;;
44564;SDS011;30275;51.822;-0.326;2022-12-20T10:29:46;3.35;;;1.50;;
44564;SDS011;30275;51.822;-0.326;2022-12-20T10:32:17;6.05;;;2.00;;
44564;SDS011;30275;51.822;-0.326;2022-12-20T10:34:56;5.68;;;1.42;;
44564;SDS011;30275;51.822;-0.326;2022-12-20T10:37:34;7.22;;;1.95;;
44564;SDS011;30275;51.822;-0.326;2022-12-20T10:39:59;5.30;;;1.60;;
44564;SDS011;30275;51.822;-0.326;2022-12-20T10:42:28;5.65;;;1.55;;
44564;SDS011;30275;51.822;-0.326;2022-12-20T10:45:01;5.80;;;1.30;;
44564;SDS011;30275;51.822;-0.326;2022-12-20T10:47:37;7.18;;;1.73;;
44564;SDS011;30275;51.822;-0.326;2022-12-20T10:52:41;3.88;;;1.30;;
44564;SDS011;30275;51.822;-0.326;2022-12-20T10:55:41;3.78;;;1.10;;
44564;SDS011;30275;51.822;-0.326;2022-12-20T11:00:40;4.72;;;1.83;;
44564;SDS011;30275;51.822;-0.326;2022-12-20T11:03:20;6.63;;;2.38;;
44564;SDS011;30275;51.822;-0.326;2022-12-20T11:08:19;8.52;;;2.15;;
44564;SDS011;30275;51.822;-0.326;2022-12-20T11:10:46;6.43;;;1.55;;
44564;SDS011;30275;51.822;-0.326;2022-12-20T11:13:19;6.57;;;2.15;;
44564;SDS011;30275;51.822;-0.326;2022-12-20T11:15:50;5.80;;;2.17;;
44564;SDS011;30275;51.822;-0.326;2022-12-20T11:21:07;9.20;;;1.80;;
44564;SDS011;30275;51.822;-0.326;2022-12-20T11:32:06;6.03;;;2.42;;
44564;SDS011;30275;51.822;-0.326;2022-12-20T11:34:38;5.30;;;1.40;;
44564;SDS011;30275;51.822;-0.326;2022-12-20T11:37:16;8.77;;;2.38;;
44564;SDS011;30275;51.822;-0.326;2022-12-20T11:53:41;9.73;;;2.45;;
44564;SDS011;30275;51.822;-0.326;2022-12-20T11:56:14;11.73;;;2.00;;
44564;SDS011;30275;51.822;-0.326;2022-12-20T11:58:49;8.73;;;2.17;;
44564;SDS011;30275;51.822;-0.326;2022-12-20T12:01:18;13.85;;;1.88;;
44564;SDS011;30275;51.822;-0.326;2022-12-20T12:06:43;9.63;;;1.73;;
44564;SDS011;30275;51.822;-0.326;2022-12-20T12:09:21;11.18;;;2.17;;
44564;SDS011;30275;51.822;-0.326;2022-12-20T12:14:35;7.60;;;2.42;;
44564;SDS011;30275;51.822;-0.326;2022-12-20T12:17:17;11.43;;;2.30;;
44564;SDS011;30275;51.822;-0.326;2022-12-20T12:19:54;8.13;;;2.55;;
44564;SDS011;30275;51.822;-0.326;2022-12-20T12:22:27;5.72;;;2.08;;
44564;SDS011;30275;51.822;-0.326;2022-12-20T12:25:00;9.95;;;2.58;;
44564;SDS011;30275;51.822;-0.326;2022-12-20T12:27:30;8.50;;;2.30;;
44564;SDS011;30275;51.822;-0.326;2022-12-20T12:29:57;12.27;;;2.78;;
44564;SDS011;30275;51.822;-0.326;2022-12-20T12:32:34;11.25;;;2.40;;
44564;SDS011;30275;51.822;-0.326;2022-12-20T12:41:28;11.85;;;2.33;;
44564;SDS011;30275;51.822;-0.326;2022-12-20T12:47:27;7.97;;;2.53;;
44564;SDS011;30275;51.822;-0.326;2022-12-20T12:49:58;12.98;;;3.85;;
44564;SDS011;30275;51.822;-0.326;2022-12-20T13:01:04;11.30;;;3.05;;
44564;SDS011;30275;51.822;-0.326;2022-12-20T13:19:36;11.80;;;2.35;;
44564;SDS011;30275;51.822;-0.326;2022-12-20T13:24:49;12.77;;;2.53;;
44564;SDS011;30275;51.822;-0.326;2022-12-20T13:27:28;9.55;;;2.60;;
44564;SDS011;30275;51.822;-0.326;2022-12-20T13:40:41;13.60;;;3.20;;
44564;SDS011;30275;51.822;-0.326;2022-12-20T13:45:47;7.78;;;2.25;;
44564;SDS011;30275;51.822;-0.326;2022-12-20T13:48:19;12.63;;;2.53;;
44564;SDS011;30275;51.822;-0.326;2022-12-20T13:50:52;10.75;;;3.50;;
44564;SDS011;30275;51.822;-0.326;2022-12-20T13:53:20;8.60;;;2.00;;
44564;SDS011;30275;51.822;-0.326;2022-12-20T13:55:48;11.77;;;2.35;;
44564;SDS011;30275;51.822;-0.326;2022-12-20T14:00:45;14.57;;;3.60;;
44564;SDS011;30275;51.822;-0.326;2022-12-20T14:03:18;13.48;;;2.50;;
44564;SDS011;30275;51.822;-0.326;2022-12-20T14:08:14;14.80;;;3.47;;
44564;SDS011;30275;51.822;-0.326;2022-12-20T14:10:42;12.85;;;2.72;;
44564;SDS011;30275;51.822;-0.326;2022-12-20T14:13:18;12.93;;;2.42;;
44564;SDS011;30275;51.822;-0.326;2022-12-20T14:15:49;13.32;;;2.67;;
44564;SDS011;30275;51.822;-0.326;2022-12-20T14:18:19;12.57;;;3.10;;
44564;SDS011;30275;51.822;-0.326;2022-12-20T14:20:58;26.48;;;3.35;;
44564;SDS011;30275;51.822;-0.326;2022-12-20T14:23:35;17.70;;;2.90;;
44564;SDS011;30275;51.822;-0.326;2022-12-20T14:26:05;10.63;;;3.03;;
44564;SDS011;30275;51.822;-0.326;2022-12-20T14:31:21;10.43;;;2.53;;
44564;SDS011;30275;51.822;-0.326;2022-12-20T14:33:50;9.60;;;3.30;;
44564;SDS011;30275;51.822;-0.326;2022-12-20T14:36:25;11.50;;;2.70;;
44564;SDS011;30275;51.822;-0.326;2022-12-20T14:38:51;16.02;;;2.80;;
44564;SDS011;30275;51.822;-0.326;2022-12-20T14:46:36;13.07;;;3.13;;
44564;SDS011;30275;51.822;-0.326;2022-12-20T14:54:38;10.18;;;2.95;;
44564;SDS011;30275;51.822;-0.326;2022-12-20T15:02:50;14.45;;;3.38;;
44564;SDS011;30275;51.822;-0.326;2022-12-20T15:13:19;12.23;;;2.67;;
44564;SDS011;30275;51.822;-0.326;2022-12-20T15:16:15;18.20;;;3.15;;
44564;SDS011;30275;51.822;-0.326;2022-12-20T15:18:45;13.18;;;3.35;;
44564;SDS011;30275;51.822;-0.326;2022-12-20T15:21:12;9.20;;;2.70;;
44564;SDS011;30275;51.822;-0.326;2022-12-20T15:23:48;15.10;;;3.55;;
44564;SDS011;30275;51.822;-0.326;2022-12-20T15:26:16;19.27;;;3.60;;
44564;SDS011;30275;51.822;-0.326;2022-12-20T15:28:44;15.68;;;3.03;;
44564;SDS011;30275;51.822;-0.326;2022-12-20T15:31:10;16.15;;;3.42;;
44564;SDS011;30275;51.822;-0.326;2022-12-20T15:33:38;9.88;;;4.05;;
44564;SDS011;30275;51.822;-0.326;2022-12-20T15:36:05;15.70;;;3.00;;
44564;SDS011;30275;51.822;-0.326;2022-12-20T15:38:31;19.95;;;4.57;;
44564;SDS011;30275;51.822;-0.326;2022-12-20T15:41:03;13.88;;;3.97;;
44564;SDS011;30275;51.822;-0.326;2022-12-20T15:43:33;15.13;;;3.00;;
44564;SDS011;30275;51.822;-0.326;2022-12-20T15:48:28;10.80;;;2.60;;
44564;SDS011;30275;51.822;-0.326;2022-12-20T15:50:54;14.43;;;3.30;;
44564;SDS011;30275;51.822;-0.326;2022-12-20T15:53:23;18.98;;;3.67;;
44564;SDS011;30275;51.822;-0.326;2022-12-20T15:55:52;17.50;;;5.10;;
44564;SDS011;30275;51.822;-0.326;2022-12-20T15:58:20;34.65;;;13.65;;
44564;SDS011;30275;51.822;-0.326;2022-12-20T16:00:47;14.20;;;5.30;;
44564;SDS011;30275;51.822;-0.326;2022-12-20T16:03:14;15.05;;;4.50;;
44564;SDS011;30275;51.822;-0.326;2022-12-20T16:08:11;13.88;;;3.25;;
44564;SDS011;30275;51.822;-0.326;2022-12-20T16:10:37;16.58;;;3.75;;
44564;SDS011;30275;51.822;-0.326;2022-12-20T16:13:03;17.63;;;4.38;;
44564;SDS011;30275;51.822;-0.326;2022-12-20T16:15:29;15.80;;;3.60;;
44564;SDS011;30275;51.822;-0.326;2022-12-20T16:17:57;10.70;;;3.40;;
44564;SDS011;30275;51.822;-0.326;2022-12-20T16:20:23;18.00;;;3.38;;
44564;SDS011;30275;51.822;-0.326;2022-12-20T16:22:51;17.55;;;4.57;;
44564;SDS011;30275;51.822;-0.326;2022-12-20T16:25:33;11.27;;;3.08;;
44564;SDS011;30275;51.822;-0.326;2022-12-20T16:28:00;16.75;;;3.17;;
44564;SDS011;30275;51.822;-0.326;2022-12-20T16:30:27;20.88;;;4.88;;
44564;SDS011;30275;51.822;-0.326;2022-12-20T16:32:53;20.90;;;4.55;;
44564;SDS011;30275;51.822;-0.326;2022-12-20T16:35:23;13.95;;;3.75;;
44564;SDS011;30275;51.822;-0.326;2022-12-20T16:37:55;13.32;;;4.57;;
44564;SDS011;30275;51.822;-0.326;2022-12-20T16:40:23;15.07;;;4.15;;
44564;SDS011;30275;51.822;-0.326;2022-12-20T16:42:53;15.73;;;4.20;;
44564;SDS011;30275;51.822;-0.326;2022-12-20T16:45:21;17.48;;;4.03;;
44564;SDS011;30275;51.822;-0.326;2022-12-20T16:47:49;16.60;;;3.95;;
44564;SDS011;30275;51.822;-0.326;2022-12-20T16:50:15;22.15;;;4.88;;
44564;SDS011;30275;51.822;-0.326;2022-12-20T16:52:41;18.20;;;4.65;;
44564;SDS011;30275;51.822;-0.326;2022-12-20T16:55:14;16.98;;;3.30;;
44564;SDS011;30275;51.822;-0.326;2022-12-20T16:57:45;14.77;;;3.70;;
44564;SDS011;30275;51.822;-0.326;2022-12-20T17:00:18;15.82;;;3.53;;
44564;SDS011;30275;51.822;-0.326;2022-12-20T17:02:46;13.00;;;3.13;;
44564;SDS011;30275;51.822;-0.326;2022-12-20T17:08:07;13.02;;;3.47;;
44564;SDS011;30275;51.822;-0.326;2022-12-20T17:10:33;16.65;;;3.92;;
44564;SDS011;30275;51.822;-0.326;2022-12-20T17:12:58;17.35;;;4.18;;
44564;SDS011;30275;51.822;-0.326;2022-12-20T17:15:25;18.20;;;3.67;;
44564;SDS011;30275;51.822;-0.326;2022-12-20T17:17:53;16.40;;;4.03;;
44564;SDS011;30275;51.822;-0.326;2022-12-20T17:20:20;16.70;;;4.57;;